Albers, Illinois
Current Conditions -  °F | °C
As of 2:58 AM on Wednesday 22 Oct 2014 (Local Time) from KBLV Reporting Station
Clear Clear  
Wind Chill: 43°   Ceiling: Unl
Heat Index: 43°   Visibility: 10mi
Dew Point: 42°   Wind: 1mph
Humidity: 95%   Direction: 60°ENE
Pressure: 30.22"   Gusts: NA
Location:  38.54°N, 89.61°W
Report Text: KBLV 220758Z AUTO 06001KT 10SM CLR 06/06 A3022 RMK AO2 SLP237 T00630055
Loading
Personal Weather Stations






























Interactive Weather Map New forecast layout! Learn more

10-Day Weather Forecast

Advertisements
Track Severe Weather on mobile